AirNav   Everest Fuels
 
 650 users online  

51A Hawkinsville-Pulaski County Airport
Hawkinsville, Georgia, USA

GOING TO HAWKINSVILLE?


FAA INFORMATION EFFECTIVE 07 NOVEMBER 2019

Location

FAA Identifier: 51A
Lat/Long: 32-17-01.2000N 083-26-16.7000W
32-17.020000N 083-26.278333W
32.2836667,-83.4379722
(estimated)
Elevation: 270 ft. / 82.3 m (surveyed)
Variation: 02W (1985)
From city: 2 miles E of HAWKINSVILLE, GA
Time zone: UTC -5 (UTC -4 during Daylight Saving Time)
Zip code: 31036

Airport Operations

Airport use: Open to the public
Activation date: 03/1963
Control tower: no
ARTCC: ATLANTA CENTER
FSS: MACON FLIGHT SERVICE STATION
NOTAMs facility: MCN (NOTAM-D service available)
Attendance: UNATNDD
Wind indicator: lighted
Segmented circle: no
Lights: DUSK-2300. MIRL RY 10/28 PRESET MED INTST DUSK-2300; TO INCR INTST AND ACTVT AFTER 2300 - CTAF.
Beacon: white-green (lighted land airport)
ARPT BCN LCTD 1000 FT SOUTH ON WATER TWR. Operates sunset to sunrise.

Airport Communications

CTAF: 122.9
WX AWOS-3PT at 48A (11 nm NE): 120.975 (478-271-5897)
WX AWOS-3 at EZM (16 nm E): 119.425 (478-374-9979)

Nearby radio navigation aids

VOR radial/distance  VOR name  Freq  Var
VNAr035/5.2VIENNA VORTAC116.5001E
MCNr156/26.6MACON VORTAC114.2001E
DBNr246/35.1DUBLIN VORTAC113.1005W

 
NDB name  Hdg/Dist  Freq  Var  ID
EASTMAN306/17.136604WEZM . --.. --
CONEY057/27.540006WOHY --- .... -.--
MONTEZUMA104/29.342604WIZS .. --.. ...
MC RAE295/30.328003WMQW -- --.- .--
LINDBERGH083/34.624204WLKG .-.. -.- --.

Airport Services

Parking: tiedowns
Airframe service: NONE
Powerplant service: NONE
Bottled oxygen: NONE
Bulk oxygen: NONE

Runway Information

Runway 10/28

Dimensions: 3000 x 60 ft. / 914 x 18 m
Surface: asphalt, in poor condition
UNFILLED CRACKS AS LRG AS INCHES TWDS 28 END.
Weight bearing capacity: 
Single wheel: 12.5
Runway edge lights: medium intensity
RUNWAY 10  RUNWAY 28
Latitude: 32-17.059350N32-16.980187N
Longitude: 083-26.565260W083-25.990198W
Elevation: 260.0 ft.267.0 ft.
Traffic pattern: leftleft
Runway heading: 101 magnetic, 099 true281 magnetic, 279 true
Markings: basic, in fair conditionbasic, in fair condition
Obstructions: 40 ft. trees, 600 ft. from runway, 150 ft. left of centerline, 10:1 slope to clear31 ft. trees, 727 ft. from runway, 150 ft. left of centerline, 17:1 slope to clear

Airport Ownership and Management from official FAA records

Ownership: Publicly-owned
Owner: CITY OF HAWKINSVILLE
P.O. BOX 120
HAWKINSVILLE, GA 31036
Phone 478-892-3240
AND PULASKI COUNTY.
Manager: SARA MYERS
P.O. BOX 120, 96 BROAD STREET
HAWKINSVILLE, GA 31036
Phone 478-892-3240
CITY MANAGER

Airport Operational Statistics

Aircraft based on the field: 2
Single engine airplanes: 2
    
Aircraft operations: avg 96/week *
80% local general aviation
20% transient general aviation
* for 12-month period ending 31 December 2018

Additional Remarks

DEER ON & INVOF ARPT.
FOR CD CTC ATLANTA APCH AT 678-364-6132, WHEN APCH CLSD CTC ATLANTA ARTCC AT 770-210-7692.

Instrument Procedures

There are no published instrument procedures at 51A.

Some nearby airports with instrument procedures:

48A - Cochran Airport (11 nm NE)
KEZM - Heart of Georgia Regional Airport (16 nm E)
KPXE - Perry-Houston County Airport (22 nm NW)
KWRB - Robins Air Force Base (23 nm N)
KCKF - Crisp County-Cordele Airport (25 nm SW)
 
Loc | Ops | Rwys | IFR | FBO | Links
Com | Nav | Svcs | Stats | Notes
Area around 51A (Hawkinsville-Pulaski County Airport)
 
Road maps at: MapQuest Bing Google
 
Aerial photo
WARNING: Photo may not be current or correct
Aerial photo of 51A (Hawkinsville-Pulaski County Airport)
Do you have a better or more recent aerial photo of Hawkinsville-Pulaski County Airport that you would like to share? If so, please send us your photo.

 
Sectional chart

 
Airport distance calculator
Flying to Hawkinsville-Pulaski County Airport? Find the distance to fly.

From to 51A

Sunrise and sunset
Times for 19-Nov-2019
 Local
(UTC-5)
 Zulu
(UTC)
Morning civil twilight06:4111:41
Sunrise07:0812:08
Sunset17:3122:31
Evening civil twilight17:5722:57

Current date and time
Zulu (UTC)  20-Nov-2019 04:50:38
Local (UTC-5)  19-Nov-2019 23:50:38
 
METAR
KEZM 
16nm E 
200435Z AUTO 00000KT 10SM CLR 06/06 A3002 RMK AO2 T00590055
KWRB 
21nm N 
200356Z 00000KT 10SM CLR 07/06 A2998 RMK AO2A SLP155 T00720060 $
KPXE 
22nm NW 
200435Z AUTO 27003KT 10SM CLR 07/05 A3000 RMK AO2 T00700049
KCKF 
25nm SW 
200435Z AUTO 00000KT 10SM CLR 07/06 A3001 RMK AO2 T00670059
KMCN 
26nm NW 
200353Z AUTO 30004KT 10SM CLR 07/04 A2998 RMK AO2 SLP151 T00670044
KDBN 
28nm NE 
200435Z AUTO 00000KT 10SM CLR 04/03 A3001 RMK AO2
TAF
KWRB 
21nm N 
192100Z 1921/2103 25012KT 9999 SKC QNH2986INS BECMG 2023/2024 VRB06KT 9999 SKC QNH3019INS TX18/1921Z TN07/2012Z
KMCN 
26nm NW 
191725Z 1918/2018 27008KT P6SM SCT080 FM192300 30004KT P6SM SKC FM201300 35007KT P6SM FEW250
NOTAMs
Click for the latest NOTAMs
NOTAMs are issued by the DoD/FAA and will open in a separate window not controlled by AirNav.

 

 
 

Would you like to see your business listed on this page?

 If your business provides an interesting product or service to pilots, flight crews, aircraft, or users of the Hawkinsville-Pulaski County Airport, you should consider listing it here.  To start the listing process, click on the button below
 
Add a business
 

Other Pages about Hawkinsville-Pulaski County Airport

Update a link
 
Copyright © AirNav, LLC. All rights reserved. Privacy Policy  Contact